Time;durP1;ratioP1;P1;durP2;ratioP2;P2;SDS_P1;SDS_P2;PMS_P1;PMS_P2;Temp;Humidity;BMP_temperature;BMP_pressure;BME280_temperature;BME280_humidity;BME280_pressure;Samples;Min_cycle;Max_cycle;Signal;HPM_P1;HPM_P2
2022/04/12 00:01:31;;;;;;;109.80;48.25;;;2.10;99.90;;;;;;5095569;28;20035;-59
2022/04/12 00:03:57;;;;;;;116.60;49.45;;;2.10;99.90;;;;;;5095588;28;20016;-59
2022/04/12 00:06:24;;;;;;;125.35;51.72;;;2.10;99.90;;;;;;5095681;28;20028;-59
2022/04/12 00:08:50;;;;;;;109.63;49.20;;;2.10;99.90;;;;;;5095492;28;20111;-59
2022/04/12 00:11:16;;;;;;;100.07;45.25;;;2.10;99.90;;;;;;5095579;28;20561;-59
2022/04/12 00:13:42;;;;;;;94.40;44.17;;;2.10;99.90;;;;;;5095405;28;20441;-59
2022/04/12 00:16:08;;;;;;;99.38;42.88;;;2.10;99.90;;;;;;5095174;28;20149;-59
2022/04/12 00:21:18;;;;;;;104.82;45.13;;;2.20;99.90;;;;;;5075144;28;20070;-59
2022/04/12 00:23:44;;;;;;;91.47;41.50;;;2.10;99.90;;;;;;5074704;28;20017;-59
2022/04/12 00:26:10;;;;;;;98.57;43.35;;;2.10;99.90;;;;;;5090864;28;20024;-59
2022/04/12 00:28:36;;;;;;;101.55;43.80;;;2.00;99.90;;;;;;5094499;28;20047;-59
2022/04/12 00:31:03;;;;;;;96.47;42.85;;;2.00;99.90;;;;;;5095319;28;20020;-59
2022/04/12 00:33:29;;;;;;;108.65;46.35;;;2.00;99.90;;;;;;5095260;28;20020;-59
2022/04/12 00:35:58;;;;;;;108.85;45.75;;;2.10;99.90;;;;;;5095069;28;20035;-59
2022/04/12 00:38:24;;;;;;;107.00;45.55;;;2.10;99.90;;;;;;5095045;28;20030;-59
2022/04/12 00:40:50;;;;;;;114.57;48.63;;;2.10;99.90;;;;;;5095330;28;20095;-59
2022/04/12 00:43:18;;;;;;;99.47;44.03;;;2.10;99.90;;;;;;5095112;28;20031;-59
2022/04/12 00:45:46;;;;;;;87.65;40.67;;;2.10;99.90;;;;;;5094865;28;20051;-59
2022/04/12 00:48:12;;;;;;;79.65;36.92;;;2.10;99.90;;;;;;5094895;28;20039;-59
2022/04/12 00:50:39;;;;;;;83.85;38.35;;;2.00;99.90;;;;;;5094779;28;20546;-59
2022/04/12 00:53:08;;;;;;;83.75;36.92;;;2.00;99.90;;;;;;5094826;28;20496;-59
2022/04/12 00:55:34;;;;;;;79.38;36.92;;;2.10;99.90;;;;;;5094817;28;20027;-58
2022/04/12 00:58:06;;;;;;;76.85;36.63;;;2.00;99.90;;;;;;5094890;28;20024;-59
2022/04/12 01:00:34;;;;;;;82.50;38.20;;;2.00;99.90;;;;;;5094622;28;20020;-59
2022/04/12 01:03:01;;;;;;;88.65;37.22;;;2.00;99.90;;;;;;5094832;28;20024;-59
2022/04/12 01:05:27;;;;;;;80.10;36.10;;;2.00;99.90;;;;;;5094645;28;20434;-59
2022/04/12 01:07:54;;;;;;;82.38;37.55;;;2.10;99.90;;;;;;5094573;28;20477;-59
2022/04/12 01:10:22;;;;;;;79.05;35.58;;;2.00;99.90;;;;;;5094785;28;20377;-59
2022/04/12 01:12:52;;;;;;;104.55;43.30;;;1.90;99.90;;;;;;5076187;28;20143;-59
2022/04/12 01:15:22;;;;;;;97.97;40.90;;;1.90;99.90;;;;;;5094551;28;20042;-59
2022/04/12 01:17:48;;;;;;;86.63;37.30;;;1.90;99.90;;;;;;5094294;28;20098;-58
2022/04/12 01:20:17;;;;;;;91.07;39.65;;;1.90;99.90;;;;;;5094495;28;20028;-59
2022/04/12 01:22:51;;;;;;;96.20;41.22;;;1.90;99.90;;;;;;5094472;28;20030;-59
2022/04/12 01:25:19;;;;;;;84.13;37.22;;;1.90;99.90;;;;;;5094460;28;20209;-59
2022/04/12 01:27:45;;;;;;;87.93;38.13;;;1.90;99.90;;;;;;5094378;28;20028;-59
2022/04/12 01:30:11;;;;;;;88.78;39.30;;;1.80;99.90;;;;;;5094657;28;20159;-59
2022/04/12 01:32:38;;;;;;;85.55;38.67;;;1.80;99.90;;;;;;5094426;28;20043;-59
2022/04/12 01:35:05;;;;;;;91.65;41.53;;;1.80;99.90;;;;;;5094220;28;20109;-59
2022/04/12 01:37:30;;;;;;;95.65;43.50;;;1.80;99.90;;;;;;5094331;28;20031;-59
2022/04/12 01:39:56;;;;;;;95.13;41.20;;;1.70;99.90;;;;;;5094911;28;20032;-59
2022/04/12 01:42:22;;;;;;;90.07;40.15;;;1.70;99.90;;;;;;5098347;28;20028;-59
2022/04/12 01:44:48;;;;;;;79.25;35.30;;;1.60;99.90;;;;;;5098363;28;20028;-59
2022/04/12 01:47:17;;;;;;;73.55;33.63;;;1.60;99.90;;;;;;5098311;28;20054;-59
2022/04/12 01:49:43;;;;;;;74.95;34.60;;;1.60;99.90;;;;;;5098257;28;20020;-59
2022/04/12 01:52:10;;;;;;;73.88;33.00;;;1.60;99.90;;;;;;5098386;28;20109;-59
2022/04/12 01:54:36;;;;;;;72.05;33.20;;;1.50;99.90;;;;;;5098234;28;20024;-59
2022/04/12 01:57:03;;;;;;;74.38;33.42;;;1.50;99.90;;;;;;5098040;28;20032;-59
2022/04/12 01:59:29;;;;;;;70.78;32.75;;;1.50;99.90;;;;;;5097922;28;20054;-59
2022/04/12 02:01:55;;;;;;;71.85;33.15;;;1.40;99.90;;;;;;5098165;28;20028;-59
2022/04/12 02:04:21;;;;;;;83.32;36.45;;;1.30;99.90;;;;;;5097832;28;20039;-59
2022/04/12 02:06:47;;;;;;;101.65;40.08;;;1.30;99.90;;;;;;5098237;28;20313;-60
2022/04/12 02:09:13;;;;;;;96.15;40.67;;;1.40;99.90;;;;;;5097945;28;20340;-59
2022/04/12 02:11:39;;;;;;;91.28;36.75;;;1.30;99.90;;;;;;5097920;28;20482;-59
2022/04/12 02:14:07;;;;;;;85.57;35.50;;;1.30;99.90;;;;;;5097621;28;20504;-59
2022/04/12 02:16:34;;;;;;;71.78;33.95;;;1.30;99.90;;;;;;5087861;28;20059;-59
2022/04/12 02:19:00;;;;;;;82.60;35.50;;;1.30;99.90;;;;;;5077622;28;20020;-59
2022/04/12 02:21:26;;;;;;;94.10;35.60;;;1.20;99.90;;;;;;5077435;28;20028;-59
2022/04/12 02:23:52;;;;;;;75.20;33.58;;;1.30;99.90;;;;;;5077277;28;20025;-59
2022/04/12 02:26:18;;;;;;;100.05;42.85;;;1.30;99.90;;;;;;5077436;28;20372;-59
2022/04/12 02:28:44;;;;;;;94.07;40.38;;;1.30;99.90;;;;;;5092909;28;20027;-59
2022/04/12 02:31:10;;;;;;;72.63;34.40;;;1.20;99.90;;;;;;5077262;28;20417;-59
2022/04/12 02:33:36;;;;;;;82.60;38.88;;;1.20;99.90;;;;;;5077075;28;20024;-59
2022/04/12 02:36:02;;;;;;;86.45;35.95;;;1.10;99.90;;;;;;5077031;28;20382;-59
2022/04/12 02:38:29;;;;;;;80.28;36.63;;;1.20;99.90;;;;;;5076993;28;20029;-59
2022/04/12 02:40:54;;;;;;;78.05;36.00;;;1.10;99.90;;;;;;5077183;28;20028;-59
2022/04/12 02:43:20;;;;;;;75.80;34.80;;;1.10;99.90;;;;;;5076995;28;20021;-59
2022/04/12 02:45:47;;;;;;;70.97;33.80;;;1.10;99.90;;;;;;5076986;28;20024;-59
2022/04/12 02:48:13;;;;;;;87.57;38.08;;;1.00;99.90;;;;;;5076881;28;20032;-59
2022/04/12 02:50:40;;;;;;;91.63;40.28;;;1.00;99.90;;;;;;5077039;28;20485;-59
2022/04/12 02:53:06;;;;;;;101.60;39.42;;;1.00;99.90;;;;;;5076008;28;20032;-59
2022/04/12 02:55:32;;;;;;;79.28;35.70;;;1.00;99.90;;;;;;5076881;28;20028;-59
2022/04/12 02:57:58;;;;;;;70.68;30.13;;;0.90;99.90;;;;;;5076804;28;20028;-59
2022/04/12 03:00:24;;;;;;;63.38;30.70;;;0.90;99.90;;;;;;5076722;28;20036;-59
2022/04/12 03:02:50;;;;;;;67.10;31.38;;;0.90;99.90;;;;;;5076885;28;20092;-59
2022/04/12 03:05:16;;;;;;;64.50;29.80;;;0.90;99.90;;;;;;5076751;28;20039;-59
2022/04/12 03:07:42;;;;;;;67.32;30.05;;;0.90;99.90;;;;;;5076622;28;20060;-59
2022/04/12 03:10:08;;;;;;;69.28;31.98;;;0.80;99.90;;;;;;5076775;28;20041;-59
2022/04/12 03:12:34;;;;;;;66.82;30.98;;;0.90;99.90;;;;;;5076395;28;20035;-59
2022/04/12 03:15:02;;;;;;;64.55;29.80;;;0.90;99.90;;;;;;5076229;28;20028;-59
2022/04/12 03:17:28;;;;;;;58.00;28.02;;;0.80;99.90;;;;;;5093409;28;20044;-59
2022/04/12 03:19:54;;;;;;;58.08;25.98;;;0.80;99.90;;;;;;5096553;28;20382;-59
2022/04/12 03:22:20;;;;;;;52.05;25.85;;;0.80;99.90;;;;;;5096540;28;20028;-59
2022/04/12 03:24:46;;;;;;;53.28;23.55;;;0.80;99.90;;;;;;5096233;28;20046;-59
2022/04/12 03:27:12;;;;;;;50.83;22.95;;;0.90;99.90;;;;;;5096527;28;20412;-59
2022/04/12 03:29:38;;;;;;;45.50;24.38;;;0.90;99.90;;;;;;5096253;28;20016;-59
2022/04/12 03:32:04;;;;;;;51.15;23.58;;;0.80;99.90;;;;;;5096479;28;20074;-59
2022/04/12 03:34:31;;;;;;;51.55;22.52;;;0.80;99.90;;;;;;5096271;28;20023;-59
2022/04/12 03:36:58;;;;;;;47.40;23.42;;;0.80;99.90;;;;;;5096172;28;20035;-59
2022/04/12 03:39:25;;;;;;;46.97;23.10;;;0.70;99.90;;;;;;5096269;28;20066;-59
2022/04/12 03:41:52;;;;;;;54.10;24.38;;;0.70;99.90;;;;;;5096255;28;20051;-58
2022/04/12 03:44:18;;;;;;;56.80;24.48;;;0.70;99.90;;;;;;5096010;28;20028;-59
2022/04/12 03:46:44;;;;;;;64.80;29.63;;;0.60;99.90;;;;;;5096255;28;20186;-59
2022/04/12 03:49:13;;;;;;;60.40;26.73;;;0.60;99.90;;;;;;5096104;28;20729;-59
2022/04/12 03:51:39;;;;;;;52.58;25.50;;;0.60;99.90;;;;;;5096132;28;20039;-59
2022/04/12 03:54:05;;;;;;;180.40;55.72;;;0.60;99.90;;;;;;5096017;28;20036;-59
2022/04/12 03:56:31;;;;;;;364.52;108.30;;;0.70;99.90;;;;;;5095712;28;20382;-59
2022/04/12 03:58:58;;;;;;;596.40;185.40;;;0.70;99.90;;;;;;5095903;28;20024;-60
2022/04/12 04:01:28;;;;;;;231.73;71.28;;;0.70;99.90;;;;;;5095909;28;20378;-61
2022/04/12 04:03:58;;;;;;;167.85;55.47;;;0.70;99.90;;;;;;5095675;28;20073;-61
2022/04/12 04:06:24;;;;;;;148.65;48.15;;;0.70;99.90;;;;;;5095648;28;20486;-61
2022/04/12 04:08:50;;;;;;;85.97;32.10;;;0.80;99.90;;;;;;5095681;28;20127;-61
2022/04/12 04:11:16;;;;;;;92.88;32.20;;;0.70;99.90;;;;;;5095427;28;20035;-61
2022/04/12 04:13:43;;;;;;;68.57;28.95;;;0.80;99.90;;;;;;5095446;28;20398;-61
2022/04/12 04:16:09;;;;;;;58.90;26.48;;;0.70;99.90;;;;;;5095156;28;20093;-61
2022/04/12 04:18:35;;;;;;;60.88;27.02;;;0.80;99.90;;;;;;5095369;28;20351;-61
2022/04/12 04:21:02;;;;;;;69.78;27.88;;;0.70;99.90;;;;;;5095204;28;20028;-61
2022/04/12 04:23:28;;;;;;;70.18;28.52;;;0.70;99.90;;;;;;5095352;28;20051;-61
2022/04/12 04:25:55;;;;;;;62.05;27.08;;;0.70;99.90;;;;;;5095341;28;20032;-60
2022/04/12 04:28:26;;;;;;;74.20;29.20;;;0.70;99.90;;;;;;5095262;28;20480;-61
2022/04/12 04:30:52;;;;;;;62.20;28.52;;;0.70;99.90;;;;;;5095260;28;20337;-61
2022/04/12 04:33:20;;;;;;;71.85;28.90;;;0.80;99.90;;;;;;5095302;28;20385;-61
2022/04/12 04:35:48;;;;;;;67.85;27.33;;;0.80;99.90;;;;;;5094929;28;20462;-61
2022/04/12 04:38:15;;;;;;;74.22;30.45;;;0.80;99.90;;;;;;5095137;28;20067;-61
2022/04/12 04:40:41;;;;;;;208.45;81.53;;;0.80;99.90;;;;;;5095021;28;20020;-61
2022/04/12 04:43:08;;;;;;;309.83;131.13;;;0.90;99.90;;;;;;5095072;28;20072;-61
2022/04/12 04:45:35;;;;;;;337.50;151.18;;;0.90;99.90;;;;;;5094702;28;20032;-61
2022/04/12 04:48:03;;;;;;;221.88;92.55;;;1.00;99.90;;;;;;5094826;28;20393;-61
2022/04/12 04:50:32;;;;;;;170.30;73.22;;;1.10;99.90;;;;;;5095197;28;20200;-61
2022/04/12 04:52:59;;;;;;;129.55;55.03;;;1.20;99.90;;;;;;5094993;28;20028;-61
2022/04/12 04:55:26;;;;;;;95.45;37.70;;;1.20;99.90;;;;;;5094664;28;20024;-61
2022/04/12 04:57:56;;;;;;;95.03;39.38;;;1.30;99.90;;;;;;5094730;28;20068;-61
2022/04/12 05:00:25;;;;;;;91.20;37.83;;;1.50;99.90;;;;;;5094664;28;20109;-61
2022/04/12 05:02:53;;;;;;;119.20;43.55;;;1.70;99.90;;;;;;5094407;28;20428;-61
2022/04/12 05:05:20;;;;;;;102.18;40.08;;;1.80;99.90;;;;;;5094738;28;20038;-61
2022/04/12 05:07:51;;;;;;;114.65;41.88;;;1.90;99.90;;;;;;5094460;28;20423;-61
2022/04/12 05:10:24;;;;;;;;;;;2.10;99.90;;;;;;5094908;28;20028;-62
2022/04/12 05:12:51;;;;;;;78.75;33.53;;;2.20;99.90;;;;;;5093391;28;19908;-61
2022/04/12 05:15:17;;;;;;;78.97;32.03;;;2.30;99.90;;;;;;5078778;28;20031;-61
2022/04/12 05:17:53;;;;;;;86.60;35.58;;;2.50;99.90;;;;;;5084004;28;20052;-61
2022/04/12 05:20:21;;;;;;;76.45;33.72;;;2.60;99.90;;;;;;5090851;28;20024;-62
2022/04/12 05:22:48;;;;;;;77.40;34.55;;;2.80;99.90;;;;;;5089418;28;20020;-61
2022/04/12 05:25:15;;;;;;;93.72;36.75;;;2.80;99.90;;;;;;5093527;28;20031;-62
2022/04/12 05:27:43;;;;;;;77.82;33.70;;;3.00;99.90;;;;;;5094214;28;20028;-61
2022/04/12 05:30:10;;;;;;;80.93;35.20;;;3.20;99.90;;;;;;5092571;28;20042;-61
2022/04/12 05:32:37;;;;;;;72.75;36.05;;;3.30;99.90;;;;;;5073633;28;20121;-61
2022/04/12 05:35:05;;;;;;;92.35;36.88;;;3.50;99.90;;;;;;5094323;28;20020;-62
2022/04/12 05:37:40;;;;;;;82.45;38.15;;;3.70;99.90;;;;;;5093969;28;20564;-62
2022/04/12 05:40:06;;;;;;;98.13;38.47;;;3.90;99.90;;;;;;5090834;28;20830;-61
2022/04/12 05:42:32;;;;;;;92.28;40.80;;;4.20;99.90;;;;;;5092378;28;20463;-61
2022/04/12 05:44:58;;;;;;;96.40;40.72;;;4.40;99.90;;;;;;5094235;28;20012;-62
2022/04/12 05:47:24;;;;;;;95.60;40.60;;;4.50;99.90;;;;;;5087784;28;20494;-62
2022/04/12 05:49:50;;;;;;;95.50;40.88;;;4.70;99.90;;;;;;5091350;28;20020;-62
2022/04/12 05:52:16;;;;;;;100.32;43.28;;;4.90;99.90;;;;;;5089568;28;20027;-62
2022/04/12 05:54:42;;;;;;;95.95;43.40;;;5.10;99.90;;;;;;5092452;28;20462;-62
2022/04/12 05:57:08;;;;;;;92.68;43.60;;;5.20;99.90;;;;;;5083741;28;20055;-62
2022/04/12 05:59:34;;;;;;;94.47;44.22;;;5.40;99.90;;;;;;5084130;28;20038;-62
2022/04/12 06:02:00;;;;;;;126.57;51.97;;;5.60;99.90;;;;;;5090037;28;20028;-62
2022/04/12 06:04:26;;;;;;;108.55;47.60;;;5.90;99.90;;;;;;5092878;28;20107;-62
2022/04/12 06:06:52;;;;;;;111.82;50.35;;;6.10;99.90;;;;;;5089607;28;20024;-62
2022/04/12 06:09:18;;;;;;;112.85;50.08;;;6.20;99.90;;;;;;5089032;28;20553;-62
2022/04/12 06:11:43;;;;;;;111.35;52.70;;;6.40;99.90;;;;;;5078779;28;20467;-62
2022/04/12 06:14:09;;;;;;;107.40;52.33;;;6.70;99.90;;;;;;5076650;28;20032;-62
2022/04/12 06:16:37;;;;;;;106.30;49.67;;;6.90;99.90;;;;;;5079656;28;20063;-62
2022/04/12 06:19:03;;;;;;;109.38;48.45;;;7.10;99.90;;;;;;5087761;28;20027;-62
2022/04/12 06:21:29;;;;;;;117.80;49.95;;;7.20;99.90;;;;;;5090743;28;20020;-62
2022/04/12 06:23:55;;;;;;;97.85;46.30;;;7.60;99.90;;;;;;5083110;28;20025;-62
2022/04/12 06:26:21;;;;;;;100.40;48.05;;;7.80;99.90;;;;;;5087003;28;20028;-62
2022/04/12 06:28:46;;;;;;;96.13;45.53;;;8.00;99.90;;;;;;5094685;28;20458;-62
2022/04/12 06:31:12;;;;;;;96.50;46.55;;;8.30;99.90;;;;;;5087064;28;20438;-63
2022/04/12 06:33:41;;;;;;;119.65;48.90;;;8.40;99.90;;;;;;5092009;28;20115;-62
2022/04/12 06:36:07;;;;;;;96.97;46.85;;;8.70;99.90;;;;;;5093250;28;20025;-62
2022/04/12 06:38:33;;;;;;;89.85;45.90;;;8.80;99.90;;;;;;5088328;28;20031;-63
2022/04/12 06:40:59;;;;;;;81.38;43.22;;;9.20;99.90;;;;;;5085164;28;20105;-62
2022/04/12 06:43:25;;;;;;;86.28;41.85;;;9.40;99.90;;;;;;5086009;28;20047;-62
2022/04/12 06:45:50;;;;;;;92.93;41.83;;;9.70;99.90;;;;;;5087474;28;20412;-62
2022/04/12 06:48:16;;;;;;;62.10;35.50;;;9.90;99.90;;;;;;5084623;28;20028;-62
2022/04/12 06:50:42;;;;;;;59.88;31.27;;;10.10;99.70;;;;;;5090498;28;20106;-63
2022/04/12 06:53:08;;;;;;;67.32;35.33;;;10.60;98.70;;;;;;5087342;28;20063;-62
2022/04/12 06:55:35;;;;;;;65.05;33.08;;;10.70;96.40;;;;;;5068055;28;20090;-63
2022/04/12 06:58:01;;;;;;;58.25;30.00;;;10.80;98.00;;;;;;5096746;28;20073;-63
2022/04/12 07:00:27;;;;;;;61.05;30.98;;;11.00;94.00;;;;;;5087091;28;20032;-63
2022/04/12 07:02:53;;;;;;;54.40;30.35;;;11.20;94.50;;;;;;5088758;28;20458;-63
2022/04/12 07:05:19;;;;;;;61.35;32.75;;;11.30;94.60;;;;;;5097080;28;20041;-63
2022/04/12 07:07:45;;;;;;;54.58;30.58;;;11.60;94.50;;;;;;5092133;28;20508;-63
2022/04/12 07:10:14;;;;;;;57.22;29.80;;;12.00;94.30;;;;;;5089629;28;20097;-63
2022/04/12 07:12:41;;;;;;;53.17;28.58;;;12.20;92.20;;;;;;5093778;28;20441;-63
2022/04/12 07:15:08;;;;;;;47.55;27.95;;;12.20;90.60;;;;;;5095533;28;20050;-63
2022/04/12 07:17:34;;;;;;;64.78;29.27;;;12.60;79.80;;;;;;5096124;28;20040;-62
2022/04/12 07:20:00;;;;;;;55.72;27.05;;;12.40;85.70;;;;;;5096922;28;20080;-63
2022/04/12 07:22:27;;;;;;;48.88;27.02;;;12.90;77.30;;;;;;5096685;28;20032;-63
2022/04/12 07:24:53;;;;;;;47.38;25.85;;;13.10;78.60;;;;;;5096293;28;20024;-63
2022/04/12 07:27:19;;;;;;;56.10;26.65;;;13.50;70.10;;;;;;5090931;28;20026;-63
2022/04/12 07:29:48;;;;;;;50.13;24.48;;;13.80;76.50;;;;;;5088733;28;20103;-63
2022/04/12 07:32:14;;;;;;;64.80;25.38;;;14.30;77.50;;;;;;5072513;28;20116;-63
2022/04/12 07:34:42;;;;;;;47.05;24.30;;;14.70;69.10;;;;;;5094694;28;20028;-63
2022/04/12 07:37:08;;;;;;;48.42;24.48;;;14.90;62.00;;;;;;5089780;28;20459;-63
2022/04/12 07:39:34;;;;;;;50.00;27.20;;;15.30;57.50;;;;;;5089150;28;20063;-63
2022/04/12 07:42:00;;;;;;;51.20;27.60;;;15.20;55.50;;;;;;5089384;28;20097;-63
2022/04/12 07:44:29;;;;;;;47.10;26.35;;;15.40;60.20;;;;;;5087605;28;20029;-63
2022/04/12 07:46:58;;;;;;;49.42;26.73;;;15.50;59.00;;;;;;5089300;28;20021;-64
2022/04/12 07:49:26;;;;;;;42.88;26.33;;;15.50;56.50;;;;;;5087473;28;20031;-63
2022/04/12 07:51:52;;;;;;;42.38;24.50;;;15.70;54.40;;;;;;5077469;28;20510;-64
2022/04/12 07:54:18;;;;;;;61.03;28.98;;;16.10;55.30;;;;;;5096064;28;20064;-63
2022/04/12 07:56:47;;;;;;;73.35;27.73;;;16.30;57.40;;;;;;5094999;28;20502;-64
2022/04/12 07:59:13;;;;;;;47.17;26.90;;;16.60;56.70;;;;;;5093835;28;20035;-64
2022/04/12 08:01:39;;;;;;;41.88;24.88;;;16.50;53.50;;;;;;5096039;28;20028;-64
2022/04/12 08:04:05;;;;;;;39.65;25.13;;;16.50;53.40;;;;;;5095087;28;20107;-64
2022/04/12 08:06:31;;;;;;;35.67;22.40;;;17.00;52.50;;;;;;5095380;28;20028;-64
2022/04/12 08:08:58;;;;;;;33.90;20.27;;;16.80;51.10;;;;;;5087607;28;20034;-64
2022/04/12 08:11:24;;;;;;;43.63;22.25;;;17.00;52.20;;;;;;5095348;28;20027;-64
2022/04/12 08:13:49;;;;;;;33.42;18.73;;;17.40;51.10;;;;;;5085892;28;20484;-64
2022/04/12 08:16:16;;;;;;;37.53;17.20;;;17.70;48.90;;;;;;5092440;28;20071;-64
2022/04/12 08:18:43;;;;;;;25.92;15.68;;;17.90;48.60;;;;;;5073419;28;20516;-64
2022/04/12 08:21:12;;;;;;;29.05;15.93;;;17.70;49.00;;;;;;5094473;28;20020;-64
2022/04/12 08:23:38;;;;;;;27.25;14.90;;;17.90;50.70;;;;;;5090591;28;20028;-64
2022/04/12 08:26:04;;;;;;;18.33;9.30;;;18.00;48.10;;;;;;5094207;28;20042;-64
2022/04/12 08:28:30;;;;;;;19.83;10.20;;;18.40;44.40;;;;;;5095270;28;20020;-64
2022/04/12 08:30:56;;;;;;;15.63;7.50;;;18.10;47.10;;;;;;5095363;28;20059;-64
2022/04/12 08:33:26;;;;;;;29.13;11.32;;;18.20;42.40;;;;;;5093869;28;20389;-64
2022/04/12 08:35:52;;;;;;;15.98;9.43;;;17.90;42.50;;;;;;5090639;28;20038;-64
2022/04/12 08:38:18;;;;;;;16.40;8.13;;;18.30;43.20;;;;;;5094899;28;20347;-64
2022/04/12 08:40:44;;;;;;;19.45;9.00;;;18.30;41.10;;;;;;5093643;28;20016;-64
2022/04/12 08:43:15;;;;;;;23.35;8.45;;;19.00;43.90;;;;;;5085681;28;20413;-64
2022/04/12 08:45:42;;;;;;;17.58;7.93;;;19.40;39.70;;;;;;5093740;28;20840;-64
2022/04/12 08:48:10;;;;;;;19.48;9.07;;;19.50;38.50;;;;;;5074224;28;20055;-65
2022/04/12 08:50:37;;;;;;;17.98;8.10;;;19.60;38.90;;;;;;5087157;28;20067;-64
2022/04/12 08:53:15;;;;;;;15.70;7.75;;;19.80;37.90;;;;;;5094221;28;20024;-64
2022/04/12 08:55:42;;;;;;;14.75;7.10;;;20.10;38.30;;;;;;5094571;28;20036;-64
2022/04/12 08:58:08;;;;;;;15.85;7.45;;;20.50;38.40;;;;;;5095068;28;20032;-64
2022/04/12 09:00:34;;;;;;;19.27;9.50;;;19.90;36.30;;;;;;5095270;28;20020;-64
2022/04/12 09:03:00;;;;;;;16.77;8.30;;;20.50;38.40;;;;;;5095181;28;20062;-64
2022/04/12 09:05:27;;;;;;;13.82;7.10;;;20.70;36.20;;;;;;5081261;28;20418;-64
2022/04/12 09:07:54;;;;;;;19.55;7.03;;;20.50;35.50;;;;;;5074882;28;20035;-64
2022/04/12 09:10:36;;;;;;;17.02;6.88;;;20.40;33.50;;;;;;5075017;28;20112;-64
2022/04/12 09:13:09;;;;;;;14.02;6.13;;;20.70;32.70;;;;;;5075071;28;20036;-64
2022/04/12 09:15:45;;;;;;;8.50;4.68;;;20.90;33.60;;;;;;5074685;28;20441;-64
2022/04/12 09:18:11;;;;;;;6.28;2.83;;;21.20;31.80;;;;;;5083519;28;20040;-64
2022/04/12 09:20:38;;;;;;;5.18;3.10;;;21.40;30.90;;;;;;5086672;28;20031;-64
2022/04/12 09:23:14;;;;;;;8.57;4.97;;;21.10;29.10;;;;;;5088193;28;20031;-64
2022/04/12 09:25:53;;;;;;;9.10;5.22;;;20.60;30.30;;;;;;5093672;28;20119;-64
2022/04/12 09:28:19;;;;;;;8.52;4.55;;;20.30;32.60;;;;;;5092883;28;20054;-65
2022/04/12 09:30:45;;;;;;;22.45;7.18;;;20.50;29.90;;;;;;5092634;28;20051;-64
2022/04/12 09:33:12;;;;;;;10.65;4.38;;;20.20;30.10;;;;;;5093830;28;20035;-64
2022/04/12 09:35:39;;;;;;;9.32;4.32;;;20.30;31.10;;;;;;5088111;28;20024;-64
2022/04/12 09:38:05;;;;;;;20.48;5.90;;;20.60;29.60;;;;;;5090036;28;20028;-64
2022/04/12 09:40:31;;;;;;;9.85;4.85;;;21.20;30.70;;;;;;5093527;28;20016;-64
2022/04/12 09:42:57;;;;;;;11.10;4.72;;;21.30;29.30;;;;;;5094138;28;20020;-62
2022/04/12 09:45:26;;;;;;;8.35;4.35;;;21.40;29.90;;;;;;5093233;28;20025;-62
2022/04/12 09:47:56;;;;;;;11.60;5.18;;;21.40;29.50;;;;;;5089018;28;20493;-62
2022/04/12 09:50:27;;;;;;;6.10;2.85;;;21.40;28.80;;;;;;5087253;28;20393;-62
2022/04/12 09:52:53;;;;;;;;;;;20.70;28.30;;;;;;5084078;28;20111;-62
2022/04/12 09:55:52;;;;;;;8.90;4.32;;;21.50;29.60;;;;;;5086144;28;20006;-62
2022/04/12 09:58:21;;;;;;;31.13;16.65;;;21.80;28.60;;;;;;5071398;28;20039;-62
2022/04/12 10:00:47;;;;;;;10.18;3.60;;;21.20;29.10;;;;;;5083552;28;20074;-62
2022/04/12 10:03:15;;;;;;;10.35;4.25;;;21.10;29.80;;;;;;5097823;28;20036;-62
2022/04/12 10:05:43;;;;;;;7.90;4.35;;;21.70;28.70;;;;;;5096077;28;20024;-63
2022/04/12 10:08:10;;;;;;;9.57;4.13;;;21.30;28.30;;;;;;5077085;28;20059;-62
2022/04/12 10:10:36;;;;;;;17.13;5.18;;;21.50;28.40;;;;;;5077562;28;20025;-63
2022/04/12 10:13:02;;;;;;;11.30;4.63;;;21.70;28.90;;;;;;5091349;28;20032;-62
2022/04/12 10:15:29;;;;;;;7.43;3.83;;;21.30;26.90;;;;;;5086292;28;20453;-62
2022/04/12 10:17:56;;;;;;;7.03;3.70;;;21.30;27.60;;;;;;5086558;28;20020;-62
2022/04/12 10:20:22;;;;;;;14.75;5.70;;;22.40;30.30;;;;;;5089395;28;20024;-62
2022/04/12 10:22:50;;;;;;;9.95;6.30;;;22.30;28.30;;;;;;5098221;28;20038;-63
2022/04/12 10:25:21;;;;;;;14.43;7.93;;;21.80;28.40;;;;;;5090273;28;20020;-62
2022/04/12 10:27:50;;;;;;;27.30;13.05;;;21.30;28.90;;;;;;5097437;28;20023;-62
2022/04/12 10:30:16;;;;;;;20.50;10.63;;;21.60;28.90;;;;;;5092912;28;20038;-62
2022/04/12 10:33:05;;;;;;;17.10;8.73;;;21.40;30.00;;;;;;5082484;28;20028;-63
2022/04/12 10:35:49;;;;;;;20.00;8.85;;;21.00;29.50;;;;;;5102946;28;20026;-62
2022/04/12 10:38:17;;;;;;;12.35;6.40;;;21.10;29.10;;;;;;5087224;28;20020;-62
2022/04/12 10:40:44;;;;;;;24.80;8.95;;;21.40;29.60;;;;;;5084881;28;20390;-62
2022/04/12 10:43:12;;;;;;;17.42;6.68;;;21.80;29.80;;;;;;5094342;28;20024;-62
2022/04/12 10:45:46;;;;;;;12.13;6.38;;;21.50;30.00;;;;;;5087522;28;20817;-62
2022/04/12 10:48:20;;;;;;;11.18;5.60;;;20.70;28.90;;;;;;5095770;28;20111;-62
2022/04/12 10:50:47;;;;;;;16.30;7.13;;;21.10;31.20;;;;;;5090749;28;20024;-62
2022/04/12 10:53:36;;;;;;;15.73;8.00;;;22.20;32.60;;;;;;5076788;28;20749;-62
2022/04/12 10:56:10;;;;;;;15.75;10.43;;;22.30;29.50;;;;;;5096152;28;20036;-64
2022/04/12 10:58:37;;;;;;;9.15;4.90;;;22.30;29.00;;;;;;5093015;28;20049;-64
2022/04/12 11:01:05;;;;;;;10.52;5.63;;;22.20;29.60;;;;;;5096078;28;20416;-64
2022/04/12 11:03:44;;;;;;;15.95;7.45;;;22.10;29.00;;;;;;5094011;28;20027;-54
2022/04/12 11:06:12;;;;;;;12.07;5.75;;;22.30;29.90;;;;;;5094652;28;20374;-54
2022/04/12 11:08:38;;;;;;;7.57;4.88;;;22.80;29.50;;;;;;5094320;28;20105;-54
2022/04/12 11:11:04;;;;;;;13.30;5.95;;;22.30;28.00;;;;;;5095870;28;20497;-54
2022/04/12 11:13:37;;;;;;;9.88;4.97;;;22.10;29.00;;;;;;5094368;28;20039;-54
2022/04/12 11:16:11;;;;;;;17.13;6.38;;;21.70;28.90;;;;;;5088947;28;20040;-54
2022/04/12 11:18:51;;;;;;;10.50;5.47;;;21.80;29.60;;;;;;5077711;28;20167;-54
2022/04/12 11:21:20;;;;;;;14.02;5.47;;;21.70;30.00;;;;;;5096634;28;20016;-54
2022/04/12 11:23:51;;;;;;;10.07;5.65;;;21.90;29.20;;;;;;5080821;28;20527;-54
2022/04/12 11:26:37;;;;;;;9.05;4.88;;;22.50;30.00;;;;;;5089813;28;20036;-54
2022/04/12 11:29:12;;;;;;;12.90;5.22;;;22.50;29.20;;;;;;5083600;28;20028;-54
2022/04/12 11:31:40;;;;;;;10.40;5.50;;;22.00;29.20;;;;;;5087518;28;20047;-54
2022/04/12 11:34:07;;;;;;;13.57;6.97;;;22.00;30.10;;;;;;5084786;28;20107;-64
2022/04/12 11:36:33;;;;;;;13.60;6.28;;;22.30;29.80;;;;;;5085569;28;20028;-62
2022/04/12 11:39:00;;;;;;;7.60;5.10;;;22.30;29.20;;;;;;5085527;28;20027;-63
2022/04/12 11:41:29;;;;;;;7.55;4.63;;;22.40;28.80;;;;;;5092023;28;20044;-64
2022/04/12 11:43:59;;;;;;;10.23;5.22;;;22.40;28.50;;;;;;5089084;28;20024;-65
2022/04/12 11:46:27;;;;;;;;;;;22.60;29.50;;;;;;5092282;28;20024;-64
2022/04/12 11:49:12;;;;;;;12.55;6.18;;;22.40;29.00;;;;;;5104083;28;20330;-64
2022/04/12 11:51:43;;;;;;;11.50;5.95;;;22.10;28.50;;;;;;5085662;28;20040;-65
2022/04/12 11:54:26;;;;;;;13.13;6.50;;;22.30;29.50;;;;;;5086328;28;20040;-62
2022/04/12 11:57:03;;;;;;;15.98;6.38;;;22.70;30.40;;;;;;5087609;28;20039;-62
2022/04/12 11:59:33;;;;;;;18.70;8.40;;;22.50;29.20;;;;;;5088834;28;20055;-63
2022/04/12 12:02:02;;;;;;;16.03;9.03;;;22.40;30.00;;;;;;5086538;28;20028;-62
2022/04/12 12:04:34;;;;;;;15.55;7.57;;;22.40;29.80;;;;;;5085601;28;20374;-62
2022/04/12 12:07:00;;;;;;;10.82;5.78;;;22.20;29.10;;;;;;5088393;28;20028;-62
2022/04/12 12:09:27;;;;;;;15.30;6.07;;;22.70;29.50;;;;;;5090075;28;20028;-63
2022/04/12 12:12:16;;;;;;;12.60;5.50;;;22.50;29.30;;;;;;5094094;28;20024;-63
2022/04/12 12:14:42;;;;;;;28.67;9.00;;;22.90;29.40;;;;;;5094880;28;20024;-63
2022/04/12 12:17:12;;;;;;;12.27;7.25;;;23.30;28.50;;;;;;5074731;28;20040;-62
2022/04/12 12:19:40;;;;;;;9.85;5.63;;;23.10;28.80;;;;;;5087117;28;20032;-63
2022/04/12 12:22:11;;;;;;;11.95;5.95;;;22.80;29.30;;;;;;5103330;28;20042;-63
2022/04/12 12:24:57;;;;;;;14.63;6.47;;;23.20;29.60;;;;;;5091121;28;20070;-62
2022/04/12 12:27:34;;;;;;;23.20;8.82;;;23.50;31.00;;;;;;5087801;28;20134;-63
2022/04/12 12:30:07;;;;;;;14.25;7.53;;;23.80;28.70;;;;;;5099448;28;20050;-63
2022/04/12 12:32:38;;;;;;;19.95;9.13;;;24.00;27.40;;;;;;5115133;28;20039;-63
2022/04/12 12:35:13;;;;;;;13.02;6.85;;;23.70;27.50;;;;;;5086798;28;20033;-63
2022/04/12 12:37:40;;;;;;;17.15;7.47;;;23.00;28.00;;;;;;5096848;28;20031;-63
2022/04/12 12:40:17;;;;;;;17.05;7.65;;;23.20;28.70;;;;;;5110246;28;20421;-63
2022/04/12 12:42:44;;;;;;;26.70;10.27;;;23.50;27.70;;;;;;5102285;28;20016;-63